sensor_id;sensor_type;location;lat;lon;timestamp;pressure;altitude;pressure_sealevel;temperature;humidity
17855;BME280;9053;53.358;6.382;2022-11-03T00:01:33;101194.50;;;11.81;98.19
17855;BME280;9053;53.358;6.382;2022-11-03T00:04:04;101194.50;;;11.81;98.23
17855;BME280;9053;53.358;6.382;2022-11-03T00:06:34;101196.31;;;11.82;98.36
17855;BME280;9053;53.358;6.382;2022-11-03T00:09:06;101191.84;;;11.81;98.23
17855;BME280;9053;53.358;6.382;2022-11-03T00:11:39;101192.81;;;11.83;98.31
17855;BME280;9053;53.358;6.382;2022-11-03T00:14:10;101191.03;;;11.82;98.46
17855;BME280;9053;53.358;6.382;2022-11-03T00:16:41;101191.03;;;11.82;98.36
17855;BME280;9053;53.358;6.382;2022-11-03T00:19:11;101182.22;;;11.81;98.38
17855;BME280;9053;53.358;6.382;2022-11-03T00:21:43;101184.06;;;11.84;98.49
17855;BME280;9053;53.358;6.382;2022-11-03T00:24:13;101186.69;;;11.84;98.54
17855;BME280;9053;53.358;6.382;2022-11-03T01:42:53;101081.31;;;11.58;99.02
17855;BME280;9053;53.358;6.382;2022-11-03T01:45:23;101074.28;;;11.57;99.08
17855;BME280;9053;53.358;6.382;2022-11-03T01:47:53;101069.78;;;11.55;99.05
17855;BME280;9053;53.358;6.382;2022-11-03T01:50:24;101063.69;;;11.56;99.10
17855;BME280;9053;53.358;6.382;2022-11-03T01:52:57;101061.03;;;11.56;99.13
17855;BME280;9053;53.358;6.382;2022-11-03T01:55:29;101059.25;;;11.55;99.10
17855;BME280;9053;53.358;6.382;2022-11-03T01:58:07;101057.44;;;11.54;99.15
17855;BME280;9053;53.358;6.382;2022-11-03T02:00:40;101058.38;;;11.54;99.14
17855;BME280;9053;53.358;6.382;2022-11-03T02:03:11;101051.28;;;11.53;99.19
17855;BME280;9053;53.358;6.382;2022-11-03T02:05:43;101051.28;;;11.53;99.21
17855;BME280;9053;53.358;6.382;2022-11-03T02:08:17;101038.09;;;11.52;99.41
17855;BME280;9053;53.358;6.382;2022-11-03T02:10:49;101044.19;;;11.51;99.23
17855;BME280;9053;53.358;6.382;2022-11-03T02:13:25;101042.41;;;11.50;99.21
17855;BME280;9053;53.358;6.382;2022-11-03T02:15:57;101040.66;;;11.50;99.24
17855;BME280;9053;53.358;6.382;2022-11-03T02:18:30;101030.13;;;11.50;99.41
17855;BME280;9053;53.358;6.382;2022-11-03T02:21:10;101039.78;;;11.50;99.43
17855;BME280;9053;53.358;6.382;2022-11-03T02:23:48;101030.03;;;11.47;99.42
17855;BME280;9053;53.358;6.382;2022-11-03T02:26:24;101033.50;;;11.46;99.46
17855;BME280;9053;53.358;6.382;2022-11-03T02:28:53;101037.00;;;11.45;99.42
17855;BME280;9053;53.358;6.382;2022-11-03T02:31:29;101029.09;;;11.45;99.45
17855;BME280;9053;53.358;6.382;2022-11-03T02:34:05;101035.19;;;11.44;99.58
17855;BME280;9053;53.358;6.382;2022-11-03T02:36:42;101027.25;;;11.42;99.50
17855;BME280;9053;53.358;6.382;2022-11-03T02:39:18;101028.13;;;11.43;99.61
17855;BME280;9053;53.358;6.382;2022-11-03T02:41:55;101018.41;;;11.40;99.46
17855;BME280;9053;53.358;6.382;2022-11-03T02:44:26;101018.31;;;11.39;99.61
17855;BME280;9053;53.358;6.382;2022-11-03T02:46:59;101018.31;;;11.37;99.72
17855;BME280;9053;53.358;6.382;2022-11-03T02:49:29;101006.81;;;11.35;99.63
17855;BME280;9053;53.358;6.382;2022-11-03T02:52:00;101021.75;;;11.36;99.79
17855;BME280;9053;53.358;6.382;2022-11-03T02:54:33;101013.91;;;11.38;99.79
17855;BME280;9053;53.358;6.382;2022-11-03T02:57:12;101018.31;;;11.37;99.83
17855;BME280;9053;53.358;6.382;2022-11-03T02:59:45;101013.84;;;11.36;99.95
17855;BME280;9053;53.358;6.382;2022-11-03T03:02:24;100999.88;;;11.37;99.96
17855;BME280;9053;53.358;6.382;2022-11-03T03:05:01;100984.91;;;11.36;100.00
17855;BME280;9053;53.358;6.382;2022-11-03T03:07:35;100984.97;;;11.38;100.00
17855;BME280;9053;53.358;6.382;2022-11-03T03:10:07;100984.97;;;11.38;100.00
17855;BME280;9053;53.358;6.382;2022-11-03T03:12:44;100990.22;;;11.38;100.00
17855;BME280;9053;53.358;6.382;2022-11-03T03:15:16;100996.38;;;11.38;100.00
17855;BME280;9053;53.358;6.382;2022-11-03T03:17:51;100988.53;;;11.40;100.00
17855;BME280;9053;53.358;6.382;2022-11-03T03:20:25;100984.22;;;11.42;100.00
17855;BME280;9053;53.358;6.382;2022-11-03T03:22:59;100987.78;;;11.44;100.00
17855;BME280;9053;53.358;6.382;2022-11-03T03:25:40;100978.16;;;11.44;100.00
17855;BME280;9053;53.358;6.382;2022-11-03T03:28:17;100974.66;;;11.45;100.00
17855;BME280;9053;53.358;6.382;2022-11-03T03:30:51;100965.94;;;11.46;100.00
17855;BME280;9053;53.358;6.382;2022-11-03T03:33:24;100965.97;;;11.48;100.00
17855;BME280;9053;53.358;6.382;2022-11-03T03:35:56;100965.16;;;11.49;100.00
17855;BME280;9053;53.358;6.382;2022-11-03T03:38:31;100952.06;;;11.52;100.00
17855;BME280;9053;53.358;6.382;2022-11-03T03:41:02;100952.97;;;11.53;100.00
17855;BME280;9053;53.358;6.382;2022-11-03T03:43:39;100945.94;;;11.53;100.00
17855;BME280;9053;53.358;6.382;2022-11-03T03:46:11;100938.09;;;11.55;100.00
17855;BME280;9053;53.358;6.382;2022-11-03T03:48:42;100933.78;;;11.57;100.00
17855;BME280;9053;53.358;6.382;2022-11-03T03:51:12;100924.97;;;11.56;100.00
17855;BME280;9053;53.358;6.382;2022-11-03T03:53:43;100934.66;;;11.57;100.00
17855;BME280;9053;53.358;6.382;2022-11-03T03:56:13;100921.53;;;11.59;100.00
17855;BME280;9053;53.358;6.382;2022-11-03T03:58:46;100928.63;;;11.61;100.00
17855;BME280;9053;53.358;6.382;2022-11-03T04:01:16;100929.50;;;11.60;100.00
17855;BME280;9053;53.358;6.382;2022-11-03T04:03:46;100911.06;;;11.60;100.00
17855;BME280;9053;53.358;6.382;2022-11-03T04:06:15;100922.47;;;11.61;100.00
17855;BME280;9053;53.358;6.382;2022-11-03T04:08:45;100918.94;;;11.60;100.00
17855;BME280;9053;53.358;6.382;2022-11-03T04:11:15;100923.38;;;11.61;100.00
17855;BME280;9053;53.358;6.382;2022-11-03T04:14:00;100924.28;;;11.62;100.00
17855;BME280;9053;53.358;6.382;2022-11-03T04:16:42;100916.25;;;11.59;100.00
17855;BME280;9053;53.358;6.382;2022-11-03T04:19:24;100910.97;;;11.57;100.00
17855;BME280;9053;53.358;6.382;2022-11-03T04:22:07;100907.47;;;11.58;100.00
17855;BME280;9053;53.358;6.382;2022-11-03T04:24:49;100900.44;;;11.57;100.00
17855;BME280;9053;53.358;6.382;2022-11-03T04:27:27;100899.63;;;11.60;100.00
17855;BME280;9053;53.358;6.382;2022-11-03T04:30:08;100899.63;;;11.60;100.00
17855;BME280;9053;53.358;6.382;2022-11-03T04:32:39;100901.31;;;11.58;100.00
17855;BME280;9053;53.358;6.382;2022-11-03T04:35:16;100898.75;;;11.59;100.00
17855;BME280;9053;53.358;6.382;2022-11-03T04:37:50;100897.78;;;11.57;100.00
17855;BME280;9053;53.358;6.382;2022-11-03T04:40:23;100904.84;;;11.58;100.00
17855;BME280;9053;53.358;6.382;2022-11-03T04:42:53;100910.09;;;11.58;100.00
17855;BME280;9053;53.358;6.382;2022-11-03T04:45:29;100897.81;;;11.59;100.00
17855;BME280;9053;53.358;6.382;2022-11-03T04:48:01;100902.16;;;11.57;100.00
17855;BME280;9053;53.358;6.382;2022-11-03T04:50:39;100897.72;;;11.54;100.00
17855;BME280;9053;53.358;6.382;2022-11-03T04:53:14;100893.31;;;11.55;100.00
17855;BME280;9053;53.358;6.382;2022-11-03T04:55:46;100888.09;;;11.56;100.00
17855;BME280;9053;53.358;6.382;2022-11-03T04:58:19;100889.00;;;11.57;100.00
17855;BME280;9053;53.358;6.382;2022-11-03T05:00:53;100890.84;;;11.59;100.00
17855;BME280;9053;53.358;6.382;2022-11-03T05:03:27;100875.84;;;11.58;100.00
17855;BME280;9053;53.358;6.382;2022-11-03T05:05:58;100886.41;;;11.58;100.00
17855;BME280;9053;53.358;6.382;2022-11-03T05:08:30;100876.72;;;11.57;100.00
17855;BME280;9053;53.358;6.382;2022-11-03T05:11:00;100884.72;;;11.60;100.00
17855;BME280;9053;53.358;6.382;2022-11-03T05:13:33;100897.81;;;11.59;100.00
17855;BME280;9053;53.358;6.382;2022-11-03T05:16:06;100899.63;;;11.60;100.00
17855;BME280;9053;53.358;6.382;2022-11-03T05:18:38;100889.03;;;11.58;100.00
17855;BME280;9053;53.358;6.382;2022-11-03T05:21:12;100888.16;;;11.58;100.00
17855;BME280;9053;53.358;6.382;2022-11-03T05:23:47;100884.63;;;11.57;100.00
17855;BME280;9053;53.358;6.382;2022-11-03T05:26:19;100880.25;;;11.58;100.00
17855;BME280;9053;53.358;6.382;2022-11-03T05:28:51;100881.13;;;11.58;100.00
17855;BME280;9053;53.358;6.382;2022-11-03T05:31:29;100875.84;;;11.58;100.00
17855;BME280;9053;53.358;6.382;2022-11-03T05:34:00;100880.25;;;11.58;100.00
17855;BME280;9053;53.358;6.382;2022-11-03T05:36:32;100874.97;;;11.58;100.00
17855;BME280;9053;53.358;6.382;2022-11-03T05:39:24;100870.50;;;11.55;100.00
17855;BME280;9053;53.358;6.382;2022-11-03T05:41:55;100862.53;;;11.52;100.00
17855;BME280;9053;53.358;6.382;2022-11-03T05:44:31;100859.88;;;11.52;100.00
17855;BME280;9053;53.358;6.382;2022-11-03T05:47:11;100851.03;;;11.50;100.00
17855;BME280;9053;53.358;6.382;2022-11-03T05:49:42;100847.53;;;11.50;100.00
17855;BME280;9053;53.358;6.382;2022-11-03T05:52:18;100848.34;;;11.48;100.00
17855;BME280;9053;53.358;6.382;2022-11-03T05:54:50;100844.81;;;11.48;100.00
17855;BME280;9053;53.358;6.382;2022-11-03T05:57:20;100834.25;;;11.46;100.00
17855;BME280;9053;53.358;6.382;2022-11-03T05:59:50;100827.19;;;11.45;100.00
17855;BME280;9053;53.358;6.382;2022-11-03T06:02:32;100835.16;;;11.47;100.00
17855;BME280;9053;53.358;6.382;2022-11-03T06:05:10;100821.03;;;11.45;100.00
17855;BME280;9053;53.358;6.382;2022-11-03T06:07:43;100817.47;;;11.43;100.00
17855;BME280;9053;53.358;6.382;2022-11-03T06:10:24;100822.81;;;11.46;100.00
17855;BME280;9053;53.358;6.382;2022-11-03T06:12:58;100823.69;;;11.45;100.00
17855;BME280;9053;53.358;6.382;2022-11-03T06:15:29;100818.47;;;11.46;100.00
17855;BME280;9053;53.358;6.382;2022-11-03T06:18:11;100827.19;;;11.45;100.00
17855;BME280;9053;53.358;6.382;2022-11-03T06:20:50;100827.19;;;11.45;100.00
17855;BME280;9053;53.358;6.382;2022-11-03T06:23:20;100821.03;;;11.45;100.00
17855;BME280;9053;53.358;6.382;2022-11-03T06:25:52;100815.78;;;11.45;100.00
17855;BME280;9053;53.358;6.382;2022-11-03T06:28:24;100811.34;;;11.44;100.00
17855;BME280;9053;53.358;6.382;2022-11-03T06:30:55;100815.78;;;11.45;100.00
17855;BME280;9053;53.358;6.382;2022-11-03T06:33:29;100819.34;;;11.47;100.00
17855;BME280;9053;53.358;6.382;2022-11-03T06:36:09;100808.81;;;11.47;100.00
17855;BME280;9053;53.358;6.382;2022-11-03T06:38:43;100813.22;;;11.48;100.00
17855;BME280;9053;53.358;6.382;2022-11-03T06:41:20;100810.59;;;11.48;100.00
17855;BME280;9053;53.358;6.382;2022-11-03T06:43:51;100805.31;;;11.48;100.00
17855;BME280;9053;53.358;6.382;2022-11-03T06:46:22;100811.53;;;11.50;100.00
17855;BME280;9053;53.358;6.382;2022-11-03T06:48:57;100803.63;;;11.50;100.00
17855;BME280;9053;53.358;6.382;2022-11-03T06:51:34;100794.88;;;11.51;100.00
17855;BME280;9053;53.358;6.382;2022-11-03T06:54:05;100798.44;;;11.53;100.00
17855;BME280;9053;53.358;6.382;2022-11-03T06:56:38;100795.88;;;11.55;100.00
17855;BME280;9053;53.358;6.382;2022-11-03T06:59:08;100791.44;;;11.54;100.00
17855;BME280;9053;53.358;6.382;2022-11-03T07:01:40;100785.34;;;11.55;100.00
17855;BME280;9053;53.358;6.382;2022-11-03T07:04:17;100795.91;;;11.56;100.00
17855;BME280;9053;53.358;6.382;2022-11-03T07:06:48;100781.91;;;11.57;100.00
17855;BME280;9053;53.358;6.382;2022-11-03T07:09:21;100787.16;;;11.57;100.00
17855;BME280;9053;53.358;6.382;2022-11-03T07:11:54;100781.97;;;11.60;100.00
17855;BME280;9053;53.358;6.382;2022-11-03T07:27:50;100785.91;;;11.75;100.00
17855;BME280;9053;53.358;6.382;2022-11-03T07:30:22;100793.88;;;11.78;100.00
17855;BME280;9053;53.358;6.382;2022-11-03T07:32:56;100783.50;;;11.82;100.00
17855;BME280;9053;53.358;6.382;2022-11-03T07:35:31;100785.31;;;11.85;100.00
17855;BME280;9053;53.358;6.382;2022-11-03T07:38:23;100780.16;;;11.88;100.00
17855;BME280;9053;53.358;6.382;2022-11-03T07:40:56;100786.44;;;11.93;100.00
17855;BME280;9053;53.358;6.382;2022-11-03T07:43:32;100771.56;;;11.95;100.00
17855;BME280;9053;53.358;6.382;2022-11-03T07:46:04;100776.84;;;11.95;100.00
17855;BME280;9053;53.358;6.382;2022-11-03T07:48:40;100772.53;;;11.99;100.00
17855;BME280;9053;53.358;6.382;2022-11-03T07:51:19;100777.00;;;12.01;100.00
17855;BME280;9053;53.358;6.382;2022-11-03T07:53:52;100765.63;;;12.04;100.00
17855;BME280;9053;53.358;6.382;2022-11-03T07:56:24;100771.84;;;12.06;100.00
17855;BME280;9053;53.358;6.382;2022-11-03T07:59:14;100767.53;;;12.09;100.00
17855;BME280;9053;53.358;6.382;2022-11-03T08:01:47;100750.88;;;12.10;100.00
17855;BME280;9053;53.358;6.382;2022-11-03T08:04:20;100749.19;;;12.12;100.00
17855;BME280;9053;53.358;6.382;2022-11-03T08:06:50;100742.16;;;12.13;100.00
17855;BME280;9053;53.358;6.382;2022-11-03T08:09:20;100742.25;;;12.16;100.00
17855;BME280;9053;53.358;6.382;2022-11-03T08:11:50;100743.16;;;12.18;100.00
17855;BME280;9053;53.358;6.382;2022-11-03T08:14:23;100737.94;;;12.20;100.00
17855;BME280;9053;53.358;6.382;2022-11-03T08:16:53;100733.59;;;12.22;100.00
17855;BME280;9053;53.358;6.382;2022-11-03T08:19:22;100722.22;;;12.24;100.00
17855;BME280;9053;53.358;6.382;2022-11-03T08:21:52;100732.88;;;12.29;100.00
17855;BME280;9053;53.358;6.382;2022-11-03T08:24:22;100730.31;;;12.32;100.00
17855;BME280;9053;53.358;6.382;2022-11-03T08:26:52;100725.97;;;12.34;100.00
17855;BME280;9053;53.358;6.382;2022-11-03T08:29:24;100721.69;;;12.38;100.00
17855;BME280;9053;53.358;6.382;2022-11-03T08:31:54;100723.53;;;12.42;100.00
17855;BME280;9053;53.358;6.382;2022-11-03T08:34:24;100725.47;;;12.47;100.00
17855;BME280;9053;53.358;6.382;2022-11-03T08:36:54;100717.56;;;12.49;100.00
17855;BME280;9053;53.358;6.382;2022-11-03T08:39:24;100710.63;;;12.52;100.00
17855;BME280;9053;53.358;6.382;2022-11-03T08:41:54;100705.47;;;12.59;100.00
17855;BME280;9053;53.358;6.382;2022-11-03T08:44:26;100701.13;;;12.61;100.00
17855;BME280;9053;53.358;6.382;2022-11-03T08:46:56;100697.69;;;12.65;100.00
17855;BME280;9053;53.358;6.382;2022-11-03T08:49:26;100689.88;;;12.69;100.00
17855;BME280;9053;53.358;6.382;2022-11-03T08:51:55;100698.84;;;12.76;100.00
17855;BME280;9053;53.358;6.382;2022-11-03T08:54:26;100688.34;;;12.79;100.00
17855;BME280;9053;53.358;6.382;2022-11-03T08:56:55;100694.63;;;12.84;100.00
17855;BME280;9053;53.358;6.382;2022-11-03T08:59:28;100693.84;;;12.90;100.00
17855;BME280;9053;53.358;6.382;2022-11-03T09:01:59;100678.13;;;12.94;100.00
17855;BME280;9053;53.358;6.382;2022-11-03T09:04:29;100680.00;;;13.00;100.00
17855;BME280;9053;53.358;6.382;2022-11-03T09:06:59;100681.84;;;13.04;100.00
17855;BME280;9053;53.358;6.382;2022-11-03T09:09:29;100670.53;;;13.10;100.00
17855;BME280;9053;53.358;6.382;2022-11-03T09:12:18;100667.09;;;13.14;100.00
17855;BME280;9053;53.358;6.382;2022-11-03T09:14:54;100663.69;;;13.18;100.00
17855;BME280;9053;53.358;6.382;2022-11-03T09:17:24;100665.44;;;13.19;100.00
17855;BME280;9053;53.358;6.382;2022-11-03T09:19:53;100660.22;;;13.22;100.00
17855;BME280;9053;53.358;6.382;2022-11-03T09:22:23;100655.00;;;13.25;100.00
17855;BME280;9053;53.358;6.382;2022-11-03T09:24:53;100652.47;;;13.28;100.00
17855;BME280;9053;53.358;6.382;2022-11-03T09:27:23;100643.69;;;13.29;100.00
17855;BME280;9053;53.358;6.382;2022-11-03T09:29:55;100641.97;;;13.31;100.00
17855;BME280;9053;53.358;6.382;2022-11-03T09:32:38;100630.56;;;13.34;100.00
17855;BME280;9053;53.358;6.382;2022-11-03T09:35:09;100635.03;;;13.36;100.00
17855;BME280;9053;53.358;6.382;2022-11-03T09:37:40;100629.78;;;13.39;100.00
17855;BME280;9053;53.358;6.382;2022-11-03T09:40:12;100629.00;;;13.44;100.00
17855;BME280;9053;53.358;6.382;2022-11-03T09:42:43;100622.88;;;13.48;100.00
17855;BME280;9053;53.358;6.382;2022-11-03T09:45:16;100619.41;;;13.50;100.00
17855;BME280;9053;53.358;6.382;2022-11-03T09:47:47;100617.69;;;13.52;100.00
17855;BME280;9053;53.358;6.382;2022-11-03T09:50:18;100609.81;;;13.55;100.00
17855;BME280;9053;53.358;6.382;2022-11-03T09:52:48;100607.16;;;13.55;100.00
17855;BME280;9053;53.358;6.382;2022-11-03T09:55:24;100594.94;;;13.59;100.00
17855;BME280;9053;53.358;6.382;2022-11-03T09:57:57;100593.22;;;13.62;100.00
17855;BME280;9053;53.358;6.382;2022-11-03T10:00:30;100592.38;;;13.65;100.00
17855;BME280;9053;53.358;6.382;2022-11-03T10:03:01;100580.97;;;13.68;100.00
17855;BME280;9053;53.358;6.382;2022-11-03T10:05:32;100575.75;;;13.72;100.00
17855;BME280;9053;53.358;6.382;2022-11-03T10:08:18;100567.00;;;13.75;100.00
17855;BME280;9053;53.358;6.382;2022-11-03T10:10:50;100562.66;;;13.78;100.00
17855;BME280;9053;53.358;6.382;2022-11-03T10:13:22;100569.81;;;13.84;100.00
17855;BME280;9053;53.358;6.382;2022-11-03T10:15:59;100566.34;;;13.90;100.00
17855;BME280;9053;53.358;6.382;2022-11-03T10:18:31;100561.13;;;13.93;100.00
17855;BME280;9053;53.358;6.382;2022-11-03T10:21:04;100568.25;;;13.97;100.00
17855;BME280;9053;53.358;6.382;2022-11-03T10:23:34;100554.19;;;14.01;100.00
17855;BME280;9053;53.358;6.382;2022-11-03T10:26:09;100556.94;;;14.07;100.00
17855;BME280;9053;53.358;6.382;2022-11-03T10:28:56;100557.91;;;14.12;100.00
17855;BME280;9053;53.358;6.382;2022-11-03T10:31:36;100553.53;;;14.16;100.00
17855;BME280;9053;53.358;6.382;2022-11-03T10:34:24;100554.47;;;14.19;100.00
17855;BME280;9053;53.358;6.382;2022-11-03T10:37:10;100544.81;;;14.21;100.00
17855;BME280;9053;53.358;6.382;2022-11-03T10:39:40;100542.16;;;14.23;100.00
17855;BME280;9053;53.358;6.382;2022-11-03T10:42:16;100530.78;;;14.27;100.00
17855;BME280;9053;53.358;6.382;2022-11-03T10:44:50;100528.13;;;14.28;100.00
17855;BME280;9053;53.358;6.382;2022-11-03T10:47:31;100511.41;;;14.31;100.00
17855;BME280;9053;53.358;6.382;2022-11-03T10:50:18;100502.63;;;14.34;100.00
17855;BME280;9053;53.358;6.382;2022-11-03T10:52:49;100490.31;;;14.34;100.00
17855;BME280;9053;53.358;6.382;2022-11-03T10:55:21;100485.94;;;14.38;100.00
17855;BME280;9053;53.358;6.382;2022-11-03T10:57:52;100485.09;;;14.40;100.00
17855;BME280;9053;53.358;6.382;2022-11-03T11:00:24;100489.53;;;14.43;100.00
17855;BME280;9053;53.358;6.382;2022-11-03T11:02:58;100483.38;;;14.45;100.00
17855;BME280;9053;53.358;6.382;2022-11-03T11:05:29;100479.00;;;14.47;100.00
17855;BME280;9053;53.358;6.382;2022-11-03T11:07:59;100475.50;;;14.50;100.00
17855;BME280;9053;53.358;6.382;2022-11-03T11:10:30;100473.78;;;14.52;100.00
17855;BME280;9053;53.358;6.382;2022-11-03T11:13:23;100463.28;;;14.57;100.00
17855;BME280;9053;53.358;6.382;2022-11-03T11:15:55;100456.25;;;14.60;100.00
17855;BME280;9053;53.358;6.382;2022-11-03T11:19:01;100459.84;;;14.65;100.00
17855;BME280;9053;53.358;6.382;2022-11-03T11:24:54;100454.69;;;14.78;100.00
17855;BME280;9053;53.358;6.382;2022-11-03T11:27:46;100443.25;;;14.80;100.00
17855;BME280;9053;53.358;6.382;2022-11-03T11:33:34;100432.75;;;14.89;100.00
17855;BME280;9053;53.358;6.382;2022-11-03T11:36:19;100437.22;;;14.95;100.00
17855;BME280;9053;53.358;6.382;2022-11-03T11:39:00;100426.63;;;14.98;100.00
17855;BME280;9053;53.358;6.382;2022-11-03T11:44:50;100414.41;;;15.09;100.00
17855;BME280;9053;53.358;6.382;2022-11-03T11:47:45;100406.47;;;15.14;100.00
17855;BME280;9053;53.358;6.382;2022-11-03T11:50:37;100395.06;;;15.23;100.00
17855;BME280;9053;53.358;6.382;2022-11-03T11:53:19;100395.13;;;15.32;100.00
17855;BME280;9053;53.358;6.382;2022-11-03T11:55:58;100375.75;;;15.38;100.00
17855;BME280;9053;53.358;6.382;2022-11-03T11:58:36;100378.44;;;15.44;100.00
17855;BME280;9053;53.358;6.382;2022-11-03T12:01:20;100360.81;;;15.50;100.00
17855;BME280;9053;53.358;6.382;2022-11-03T12:03:53;100359.06;;;15.52;100.00
17855;BME280;9053;53.358;6.382;2022-11-03T12:06:31;100352.88;;;15.53;100.00
17855;BME280;9053;53.358;6.382;2022-11-03T12:09:07;100346.69;;;15.54;100.00
17855;BME280;9053;53.358;6.382;2022-11-03T12:11:42;100344.03;;;15.54;100.00
17855;BME280;9053;53.358;6.382;2022-11-03T12:14:24;100338.75;;;15.54;100.00
17855;BME280;9053;53.358;6.382;2022-11-03T12:16:56;100333.44;;;15.54;100.00
17855;BME280;9053;53.358;6.382;2022-11-03T12:19:34;100328.19;;;15.57;100.00
17855;BME280;9053;53.358;6.382;2022-11-03T12:22:08;100322.84;;;15.54;100.00
17855;BME280;9053;53.358;6.382;2022-11-03T12:24:48;100319.31;;;15.55;100.00
17855;BME280;9053;53.358;6.382;2022-11-03T12:27:39;100315.78;;;15.56;100.00
17855;BME280;9053;53.358;6.382;2022-11-03T12:30:15;100318.47;;;15.58;100.00
17855;BME280;9053;53.358;6.382;2022-11-03T12:32:45;100307.84;;;15.58;100.00
17855;BME280;9053;53.358;6.382;2022-11-03T12:35:17;100310.50;;;15.58;100.00
17855;BME280;9053;53.358;6.382;2022-11-03T12:37:48;100303.47;;;15.60;100.00
17855;BME280;9053;53.358;6.382;2022-11-03T12:40:21;100301.69;;;15.61;100.00
17855;BME280;9053;53.358;6.382;2022-11-03T12:42:53;100288.44;;;15.64;100.00
17855;BME280;9053;53.358;6.382;2022-11-03T12:45:22;100284.91;;;15.63;100.00
17855;BME280;9053;53.358;6.382;2022-11-03T12:47:52;100275.16;;;15.62;100.00
17855;BME280;9053;53.358;6.382;2022-11-03T12:50:22;100269.88;;;15.64;100.00
17855;BME280;9053;53.358;6.382;2022-11-03T12:52:53;100271.63;;;15.65;100.00
17855;BME280;9053;53.358;6.382;2022-11-03T12:55:25;100262.81;;;15.66;100.00
17855;BME280;9053;53.358;6.382;2022-11-03T12:57:55;100268.13;;;15.66;100.00
17855;BME280;9053;53.358;6.382;2022-11-03T13:00:25;100262.81;;;15.66;100.00
17855;BME280;9053;53.358;6.382;2022-11-03T13:02:54;100261.94;;;15.67;99.94
17855;BME280;9053;53.358;6.382;2022-11-03T13:05:24;100256.63;;;15.67;99.92
17855;BME280;9053;53.358;6.382;2022-11-03T13:07:54;100256.63;;;15.67;99.78
17855;BME280;9053;53.358;6.382;2022-11-03T13:10:26;100247.81;;;15.68;99.83
17855;BME280;9053;53.358;6.382;2022-11-03T13:12:56;100248.69;;;15.67;99.59
17855;BME280;9053;53.358;6.382;2022-11-03T13:15:26;100246.03;;;15.67;99.48
17855;BME280;9053;53.358;6.382;2022-11-03T13:17:56;100230.16;;;15.65;99.34
17855;BME280;9053;53.358;6.382;2022-11-03T13:20:39;100225.72;;;15.66;99.16
17855;BME280;9053;53.358;6.382;2022-11-03T13:23:10;100231.03;;;15.66;99.04
17855;BME280;9053;53.358;6.382;2022-11-03T13:25:48;100220.41;;;15.66;98.81
17855;BME280;9053;53.358;6.382;2022-11-03T13:28:18;100222.19;;;15.65;98.71
17855;BME280;9053;53.358;6.382;2022-11-03T13:30:48;100214.19;;;15.62;98.47
17855;BME280;9053;53.358;6.382;2022-11-03T13:33:18;100206.28;;;15.61;98.35
17855;BME280;9053;53.358;6.382;2022-11-03T13:35:47;100201.88;;;15.63;98.19
17855;BME280;9053;53.358;6.382;2022-11-03T13:38:17;100200.97;;;15.64;97.91
17855;BME280;9053;53.358;6.382;2022-11-03T13:40:50;100200.94;;;15.62;97.89
17855;BME280;9053;53.358;6.382;2022-11-03T13:43:22;100193.88;;;15.59;97.59
17855;BME280;9053;53.358;6.382;2022-11-03T13:45:52;100206.25;;;15.57;97.52
17855;BME280;9053;53.358;6.382;2022-11-03T13:48:24;100208.03;;;15.55;97.42
17855;BME280;9053;53.358;6.382;2022-11-03T13:51:14;100208.00;;;15.52;97.10
17855;BME280;9053;53.358;6.382;2022-11-03T13:53:44;100202.69;;;15.51;96.95
17855;BME280;9053;53.358;6.382;2022-11-03T13:56:37;100198.25;;;15.47;96.94
17855;BME280;9053;53.358;6.382;2022-11-03T13:59:26;100191.19;;;15.46;96.65
17855;BME280;9053;53.358;6.382;2022-11-03T14:01:56;100189.41;;;15.43;96.60
17855;BME280;9053;53.358;6.382;2022-11-03T14:04:46;100195.63;;;15.42;96.40
17855;BME280;9053;53.358;6.382;2022-11-03T14:07:16;100188.53;;;15.43;96.41
17855;BME280;9053;53.358;6.382;2022-11-03T14:09:46;100177.06;;;15.42;96.34
17855;BME280;9053;53.358;6.382;2022-11-03T14:12:18;100180.56;;;15.41;96.16
17855;BME280;9053;53.358;6.382;2022-11-03T14:14:58;100171.75;;;15.41;96.13
17855;BME280;9053;53.358;6.382;2022-11-03T14:17:29;100165.56;;;15.40;96.26
17855;BME280;9053;53.358;6.382;2022-11-03T14:19:59;100161.13;;;15.39;96.10
17855;BME280;9053;53.358;6.382;2022-11-03T14:22:31;100153.19;;;15.39;95.98
17855;BME280;9053;53.358;6.382;2022-11-03T14:25:03;100145.25;;;15.39;95.86
17855;BME280;9053;53.358;6.382;2022-11-03T14:27:36;100139.06;;;15.40;95.92
17855;BME280;9053;53.358;6.382;2022-11-03T14:30:07;100129.34;;;15.39;95.69
17855;BME280;9053;53.358;6.382;2022-11-03T14:32:37;100124.03;;;15.39;95.66
17855;BME280;9053;53.358;6.382;2022-11-03T14:35:07;100114.34;;;15.38;95.58
17855;BME280;9053;53.358;6.382;2022-11-03T14:37:37;100109.03;;;15.38;95.52
17855;BME280;9053;53.358;6.382;2022-11-03T14:40:09;100107.25;;;15.37;95.53
17855;BME280;9053;53.358;6.382;2022-11-03T14:43:02;100102.84;;;15.34;95.42
17855;BME280;9053;53.358;6.382;2022-11-03T14:45:30;100091.34;;;15.34;95.32
17855;BME280;9053;53.358;6.382;2022-11-03T14:48:05;100082.50;;;15.32;95.38
17855;BME280;9053;53.358;6.382;2022-11-03T14:50:35;100086.06;;;15.32;95.14
17855;BME280;9053;53.358;6.382;2022-11-03T14:53:05;100085.19;;;15.30;95.27
17855;BME280;9053;53.358;6.382;2022-11-03T14:55:35;100089.59;;;15.28;95.05
17855;BME280;9053;53.358;6.382;2022-11-03T14:58:07;100079.88;;;15.27;95.08
17855;BME280;9053;53.358;6.382;2022-11-03T15:00:37;100078.97;;;15.27;95.04
17855;BME280;9053;53.358;6.382;2022-11-03T15:03:07;100065.75;;;15.25;94.95
17855;BME280;9053;53.358;6.382;2022-11-03T15:05:37;100062.22;;;15.25;94.90
17855;BME280;9053;53.358;6.382;2022-11-03T15:08:13;100055.13;;;15.24;94.75